createdAt,value
2022-11-24T00:00:06.698Z,52790.53
2022-11-24T00:01:11.094Z,52751.46
2022-11-24T00:02:14.246Z,52752.46
2022-11-24T00:03:17.997Z,52742.44
2022-11-24T00:04:21.783Z,52727.41
2022-11-24T00:05:24.749Z,52738.43
2022-11-24T00:06:28.155Z,52757.46
2022-11-24T00:07:31.228Z,52775.50
2022-11-24T00:08:43.735Z,52815.58
2022-11-24T00:09:47.413Z,52733.42
2022-11-24T00:10:50.385Z,52718.39
2022-11-24T00:11:53.560Z,52735.42
2022-11-24T00:12:56.864Z,52705.36
2022-11-24T00:14:00.248Z,52723.40
2022-11-24T00:15:03.117Z,52723.40
2022-11-24T00:16:06.087Z,52747.45
2022-11-24T00:20:54.651Z,52711.37
2022-11-24T00:23:05.426Z,52731.41
2022-11-24T00:25:22.246Z,52723.40
2022-11-24T00:28:49.179Z,52833.62
2022-11-24T00:29:51.955Z,52787.53
2022-11-24T00:30:54.999Z,52762.48
2022-11-24T00:31:58.029Z,52723.40
2022-11-24T00:33:01.104Z,52677.31
2022-11-24T00:34:04.169Z,52731.41
2022-11-24T00:35:07.051Z,52788.53
2022-11-24T00:36:12.069Z,52752.46
2022-11-24T00:37:14.962Z,52666.29
2022-11-24T00:38:18.134Z,52671.30
2022-11-24T00:39:21.726Z,52641.24
2022-11-24T00:40:24.892Z,52643.24
2022-11-24T00:42:43.956Z,52646.25
2022-11-24T00:43:47.243Z,52635.23
2022-11-24T00:44:50.218Z,52755.46
2022-11-24T00:45:53.721Z,52715.38
2022-11-24T00:48:07.143Z,52622.20
2022-11-24T00:49:09.825Z,52661.28
2022-11-24T00:50:12.700Z,52755.46
2022-11-24T00:51:15.564Z,52733.42
2022-11-24T00:52:18.645Z,52791.54
2022-11-24T00:53:21.924Z,52796.54
2022-11-24T00:54:24.600Z,52786.52
2022-11-24T00:55:33.816Z,52792.54
2022-11-24T00:56:36.593Z,52744.44
2022-11-24T00:57:39.281Z,52756.46
2022-11-24T00:58:42.236Z,52796.54
2022-11-24T00:59:45.211Z,52780.51
2022-11-24T01:00:51.261Z,52787.53
2022-11-24T01:01:54.505Z,52810.57
2022-11-24T01:02:57.541Z,52808.57
2022-11-24T01:04:00.300Z,52772.50
2022-11-24T01:05:10.029Z,52837.62
2022-11-24T01:06:13.015Z,52845.64
2022-11-24T01:07:16.178Z,52864.68
2022-11-24T01:08:18.963Z,52832.62
2022-11-24T01:09:21.940Z,52814.58
2022-11-24T01:10:24.609Z,52837.62
2022-11-24T01:11:27.896Z,52830.61
2022-11-24T01:12:31.083Z,52807.57
2022-11-24T01:13:40.500Z,52737.43
2022-11-24T01:14:43.602Z,52751.46
2022-11-24T01:15:46.407Z,52805.56
2022-11-24T01:16:49.226Z,52814.58
2022-11-24T01:17:52.303Z,52781.52
2022-11-24T01:18:58.252Z,52681.32
2022-11-24T01:20:01.027Z,52758.47
2022-11-24T01:21:09.641Z,52759.47
2022-11-24T01:22:08.843Z,52778.51
2022-11-24T01:23:12.131Z,52824.60
2022-11-24T01:24:15.188Z,52807.57
2022-11-24T01:25:18.479Z,52847.64
2022-11-24T01:26:22.164Z,52865.68
2022-11-24T01:27:25.556Z,52815.58
2022-11-24T01:28:28.733Z,52784.52
2022-11-24T01:29:31.812Z,52801.55
2022-11-24T01:30:34.856Z,52814.58
2022-11-24T01:31:37.975Z,52846.64
2022-11-24T01:33:57.249Z,52826.61
2022-11-24T01:35:00.238Z,52837.62
2022-11-24T01:36:02.991Z,52813.58
2022-11-24T01:37:05.971Z,52815.58
2022-11-24T01:38:08.955Z,52752.46
2022-11-24T01:39:11.748Z,52790.53
2022-11-24T01:40:15.007Z,52855.66
2022-11-24T01:41:18.195Z,52816.58
2022-11-24T01:42:21.163Z,52794.54
2022-11-24T01:43:24.350Z,52878.71
2022-11-24T01:44:27.430Z,52845.64
2022-11-24T01:45:31.029Z,52859.67
2022-11-24T01:46:33.987Z,52894.74
2022-11-24T01:47:36.769Z,52893.74
2022-11-24T01:48:39.846Z,52912.78
2022-11-24T01:49:42.924Z,52858.67
2022-11-24T01:50:45.904Z,52922.80
2022-11-24T01:51:48.780Z,52965.88
2022-11-24T01:52:51.545Z,52902.76
2022-11-24T01:53:54.952Z,52814.58
2022-11-24T01:54:57.702Z,52903.76
2022-11-24T01:56:00.983Z,52808.57
2022-11-24T01:57:03.859Z,52818.59
2022-11-24T01:58:06.628Z,52805.56
2022-11-24T01:59:09.502Z,52819.59
2022-11-24T02:00:12.494Z,52841.63
2022-11-24T02:01:15.624Z,52815.58
2022-11-24T02:02:18.379Z,52849.65
2022-11-24T02:03:21.646Z,52867.68
2022-11-24T02:04:24.712Z,52843.64
2022-11-24T02:05:27.716Z,52869.69
2022-11-24T02:06:30.547Z,52865.68
2022-11-24T02:07:33.889Z,52819.59
2022-11-24T02:08:36.933Z,52747.45
2022-11-24T02:09:40.109Z,52804.56
2022-11-24T02:10:42.772Z,52843.64
2022-11-24T02:11:45.327Z,52859.67
2022-11-24T02:12:48.319Z,52873.70
2022-11-24T02:13:51.130Z,52839.63
2022-11-24T02:14:54.176Z,52887.73
2022-11-24T02:15:57.258Z,52849.65
2022-11-24T02:17:02.097Z,52838.62
2022-11-24T02:18:04.735Z,52884.72
2022-11-24T02:19:07.727Z,52889.73
2022-11-24T02:20:11.103Z,52807.57
2022-11-24T02:21:14.173Z,52822.59
2022-11-24T02:22:17.252Z,52866.68
2022-11-24T02:23:20.638Z,52858.67
2022-11-24T02:24:23.812Z,52909.77
2022-11-24T02:25:26.811Z,52932.82
2022-11-24T02:26:30.004Z,52971.89
2022-11-24T02:27:33.063Z,52937.83
2022-11-24T02:28:36.145Z,52880.71
2022-11-24T02:29:39.214Z,52827.61
2022-11-24T02:30:42.621Z,52829.61
2022-11-24T02:31:46.499Z,52878.71
2022-11-24T02:32:49.272Z,52994.94
2022-11-24T02:33:52.250Z,53018.99
2022-11-24T02:34:55.449Z,52983.92
2022-11-24T02:35:58.566Z,52932.82
2022-11-24T02:37:01.412Z,52965.88
2022-11-24T02:38:04.470Z,52989.93
2022-11-24T02:39:07.441Z,53005.96
2022-11-24T02:40:10.427Z,53004.96
2022-11-24T02:41:13.523Z,52995.95
2022-11-24T02:42:16.474Z,52957.87
2022-11-24T02:43:19.249Z,52921.79
2022-11-24T02:44:22.244Z,52901.75
2022-11-24T02:45:25.203Z,52960.88
2022-11-24T02:46:27.938Z,52928.81
2022-11-24T02:47:31.163Z,52868.69
2022-11-24T02:48:34.243Z,52866.68
2022-11-24T02:49:37.127Z,52885.72
2022-11-24T02:50:40.095Z,52871.70
2022-11-24T02:51:42.861Z,52866.68
2022-11-24T02:52:45.531Z,52826.61
2022-11-24T02:53:48.313Z,52868.69
2022-11-24T02:54:50.873Z,52901.75
2022-11-24T02:55:54.050Z,52853.66
2022-11-24T02:56:56.926Z,52898.75
2022-11-24T02:58:01.641Z,52828.61
2022-11-24T02:59:04.330Z,52859.67
2022-11-24T03:00:07.086Z,52879.71
2022-11-24T03:01:10.041Z,52875.70
2022-11-24T03:02:13.665Z,52819.59
2022-11-24T03:03:16.633Z,52814.58
2022-11-24T03:04:19.505Z,52859.67
2022-11-24T03:05:22.284Z,52912.78
2022-11-24T03:06:25.166Z,52881.71
2022-11-24T03:07:28.311Z,52859.67
2022-11-24T03:08:31.111Z,52860.67
2022-11-24T03:09:34.197Z,52813.58
2022-11-24T03:10:37.271Z,52803.56
2022-11-24T03:11:40.762Z,52811.57
2022-11-24T03:12:43.730Z,52865.68
2022-11-24T03:13:46.813Z,52921.79
2022-11-24T03:14:49.583Z,52862.68
2022-11-24T03:15:52.525Z,52884.72
2022-11-24T03:16:55.130Z,52890.73
2022-11-24T03:17:57.807Z,52827.61
2022-11-24T03:19:00.694Z,52894.74
2022-11-24T03:20:05.145Z,52951.86
2022-11-24T03:21:08.371Z,52901.75
2022-11-24T03:22:11.255Z,52913.78
2022-11-24T03:23:14.230Z,52977.91
2022-11-24T03:24:17.012Z,52937.83
2022-11-24T03:25:20.285Z,52926.80
2022-11-24T03:26:23.254Z,52945.84
2022-11-24T03:27:26.698Z,52941.84
2022-11-24T03:28:30.128Z,52900.75
2022-11-24T03:29:33.437Z,52935.82
2022-11-24T03:30:36.815Z,52899.75
2022-11-24T03:31:39.886Z,52942.84
2022-11-24T03:32:42.860Z,52912.78
2022-11-24T03:33:46.037Z,52911.77
2022-11-24T03:34:48.706Z,52917.79
2022-11-24T03:35:52.102Z,52928.81
2022-11-24T03:36:54.868Z,52915.78
2022-11-24T03:37:57.950Z,52913.78
2022-11-24T03:39:01.345Z,52903.76
2022-11-24T03:40:04.108Z,52897.75
2022-11-24T03:41:06.990Z,52860.67
2022-11-24T03:42:10.173Z,52858.67
2022-11-24T03:43:13.550Z,52929.81
2022-11-24T03:44:17.141Z,52915.78
2022-11-24T03:45:44.774Z,52938.83
2022-11-24T03:46:24.401Z,52925.80
2022-11-24T03:47:27.312Z,52959.87
2022-11-24T03:48:30.622Z,52953.86
2022-11-24T03:49:33.848Z,52939.83
2022-11-24T03:50:36.972Z,52929.81
2022-11-24T03:51:40.132Z,52918.79
2022-11-24T03:52:43.212Z,52921.79
2022-11-24T03:53:46.292Z,52895.74
2022-11-24T03:54:49.570Z,52915.78
2022-11-24T03:55:52.857Z,52896.74
2022-11-24T03:56:55.728Z,52921.79
2022-11-24T03:57:58.709Z,52961.87
2022-11-24T03:59:02.011Z,52952.86
2022-11-24T04:00:05.400Z,52930.81
2022-11-24T04:01:08.457Z,52922.80
2022-11-24T04:02:11.891Z,52973.90
2022-11-24T04:03:14.960Z,52973.90
2022-11-24T04:04:18.005Z,52969.89
2022-11-24T04:05:22.426Z,52987.93
2022-11-24T04:06:25.493Z,52966.89
2022-11-24T04:07:28.977Z,52932.82
2022-11-24T04:08:32.394Z,52962.88
2022-11-24T04:09:35.159Z,52961.87
2022-11-24T04:10:38.745Z,52972.90
2022-11-24T04:11:41.726Z,52974.90
2022-11-24T04:12:45.014Z,52958.87
2022-11-24T04:13:48.499Z,53038.03
2022-11-24T04:14:51.977Z,53062.08
2022-11-24T04:15:55.734Z,53076.11
2022-11-24T04:16:58.952Z,53066.09
2022-11-24T04:18:04.495Z,53076.11
2022-11-24T04:19:07.254Z,53021.00
2022-11-24T04:20:10.147Z,52989.93
2022-11-24T04:21:12.707Z,52962.88
2022-11-24T04:22:15.373Z,53009.97
2022-11-24T04:23:18.252Z,53062.08
2022-11-24T04:24:21.326Z,53147.25
2022-11-24T04:25:24.409Z,53130.22
2022-11-24T04:26:28.009Z,53102.16
2022-11-24T04:27:30.663Z,53150.26
2022-11-24T04:28:33.533Z,53158.28
2022-11-24T04:29:37.132Z,53108.17
2022-11-24T04:30:41.361Z,53143.25
2022-11-24T04:31:46.117Z,53076.11
2022-11-24T04:32:49.452Z,53138.23
2022-11-24T04:33:52.216Z,53238.45
2022-11-24T04:34:55.508Z,53289.55
2022-11-24T04:35:58.375Z,53366.72
2022-11-24T04:37:01.467Z,53505.01
2022-11-24T04:38:04.220Z,53628.28
2022-11-24T04:39:25.820Z,53675.39
2022-11-24T04:40:11.413Z,53802.67
2022-11-24T04:41:14.074Z,53811.69
2022-11-24T04:42:16.740Z,53779.62
2022-11-24T04:43:20.148Z,53575.17
2022-11-24T04:44:24.848Z,53591.20
2022-11-24T04:45:28.067Z,53699.44
2022-11-24T04:46:31.197Z,53833.74
2022-11-24T04:47:34.511Z,54014.15
2022-11-24T04:48:38.513Z,54177.52
2022-11-24T04:49:41.507Z,54315.85
2022-11-24T04:50:44.362Z,54394.04
2022-11-24T04:51:46.712Z,54457.19
2022-11-24T04:52:49.918Z,54565.45
2022-11-24T04:53:52.870Z,54586.50
2022-11-24T04:54:55.751Z,54440.14
2022-11-24T04:55:58.524Z,54341.91
2022-11-24T04:57:01.192Z,54336.90
2022-11-24T04:58:04.170Z,54362.96
2022-11-24T04:59:08.604Z,54314.85
2022-11-24T05:00:11.136Z,54221.63
2022-11-24T05:01:13.994Z,54089.32
2022-11-24T05:02:16.783Z,54126.41
2022-11-24T05:03:19.661Z,54125.40
2022-11-24T05:04:22.696Z,54152.46
2022-11-24T05:05:25.624Z,54280.77
2022-11-24T05:06:28.807Z,54370.98
2022-11-24T05:07:32.080Z,54465.21
2022-11-24T05:08:34.858Z,54584.50
2022-11-24T05:09:58.458Z,54796.02
2022-11-24T05:10:42.571Z,55036.62
2022-11-24T05:11:45.687Z,55174.98
2022-11-24T05:12:51.416Z,55223.10
2022-11-24T05:13:54.663Z,56096.46
2022-11-24T05:14:58.465Z,56270.96
2022-11-24T05:16:01.297Z,56486.58
2022-11-24T05:17:03.904Z,56628.00
2022-11-24T05:18:06.988Z,56740.33
2022-11-24T05:19:10.165Z,56794.49
2022-11-24T05:20:13.343Z,56906.83
2022-11-24T05:21:16.030Z,56938.93
2022-11-24T05:22:18.794Z,57125.50
2022-11-24T05:23:21.653Z,57241.85
2022-11-24T05:24:24.937Z,57420.41
2022-11-24T05:25:28.026Z,57632.08
2022-11-24T05:26:30.802Z,57655.16
2022-11-24T05:27:33.778Z,57654.16
2022-11-24T05:28:36.847Z,57722.37
2022-11-24T05:29:40.081Z,57811.66
2022-11-24T05:30:43.144Z,57949.11
2022-11-24T05:31:46.682Z,58074.52
2022-11-24T05:32:49.577Z,57979.21
2022-11-24T05:33:53.417Z,58017.34
2022-11-24T05:34:56.449Z,58102.62
2022-11-24T05:35:59.440Z,58291.25
2022-11-24T05:37:03.015Z,58387.57
2022-11-24T05:38:05.717Z,58522.03
2022-11-24T05:39:08.558Z,58824.08
2022-11-24T05:40:11.748Z,59213.46
2022-11-24T05:41:14.085Z,59410.17
2022-11-24T05:42:16.789Z,59526.60
2022-11-24T05:43:19.565Z,59827.72
2022-11-24T05:44:23.456Z,59986.32
2022-11-24T05:45:26.557Z,60048.55
2022-11-24T05:46:29.658Z,60230.25
2022-11-24T05:47:32.905Z,60182.07
2022-11-24T05:48:36.307Z,60265.38
2022-11-24T05:49:39.385Z,60157.97
2022-11-24T05:50:42.950Z,60202.14
2022-11-24T05:51:46.036Z,60153.96
2022-11-24T05:52:49.446Z,60140.91
2022-11-24T05:53:54.483Z,60102.76
2022-11-24T05:54:57.329Z,60110.79
2022-11-24T05:56:00.289Z,60056.58
2022-11-24T05:57:03.579Z,60063.61
2022-11-24T05:58:06.477Z,59964.23
2022-11-24T05:59:10.079Z,59964.23
2022-11-24T06:00:13.540Z,60001.37
2022-11-24T06:01:16.818Z,60072.64
2022-11-24T06:02:20.141Z,60082.68
2022-11-24T06:03:23.390Z,60080.68
2022-11-24T06:04:31.294Z,60098.75
2022-11-24T06:05:34.789Z,60153.96
2022-11-24T06:06:38.128Z,60141.91
2022-11-24T06:07:41.076Z,60118.82
2022-11-24T06:08:44.123Z,60180.05
2022-11-24T06:09:47.193Z,60160.98
2022-11-24T06:10:50.376Z,60129.86
2022-11-24T06:11:53.477Z,60071.64
2022-11-24T06:12:57.256Z,60050.56
2022-11-24T06:14:00.749Z,60043.54
2022-11-24T06:15:04.042Z,60071.64
2022-11-24T06:16:06.964Z,60071.64
2022-11-24T06:17:10.397Z,60035.50
2022-11-24T06:18:13.982Z,60058.59
2022-11-24T06:19:17.722Z,60080.68
2022-11-24T06:20:31.177Z,60103.76
2022-11-24T06:21:30.502Z,60014.42
2022-11-24T06:22:36.139Z,60016.43
2022-11-24T06:23:39.523Z,60050.56
2022-11-24T06:24:43.849Z,60068.63
2022-11-24T06:25:51.479Z,60020.45
2022-11-24T06:26:56.061Z,60022.45
2022-11-24T06:27:58.713Z,60037.51
2022-11-24T06:29:01.649Z,60054.57
2022-11-24T06:30:06.802Z,60066.62
2022-11-24T06:31:10.701Z,60205.15
2022-11-24T06:32:13.983Z,60220.21
2022-11-24T06:33:18.226Z,60203.14
2022-11-24T06:34:25.900Z,60226.23
2022-11-24T06:35:30.620Z,60255.34
2022-11-24T06:36:40.103Z,60238.28
2022-11-24T06:37:43.982Z,60215.19
2022-11-24T06:38:47.308Z,60296.50
2022-11-24T06:39:57.661Z,60233.26
2022-11-24T06:43:53.923Z,60339.67
2022-11-24T06:45:16.049Z,58163.82
2022-11-24T06:49:16.630Z,60224.23
2022-11-24T06:50:19.845Z,60331.64
2022-11-24T06:51:23.143Z,60364.77
2022-11-24T06:52:42.273Z,60333.65
2022-11-24T06:53:47.927Z,60312.57
2022-11-24T06:55:03.372Z,60481.23
2022-11-24T06:56:16.719Z,60446.09
2022-11-24T06:57:26.045Z,60413.96
2022-11-24T07:00:02.324Z,60468.18
2022-11-24T07:01:05.515Z,60483.23
2022-11-24T07:02:11.588Z,60491.26
2022-11-24T07:05:56.630Z,60579.61
2022-11-24T07:34:48.954Z,60617.76
2022-11-24T07:47:12.800Z,60731.21
2022-11-24T07:53:50.827Z,60769.36
2022-11-24T07:56:26.996Z,60620.77
2022-11-24T08:08:31.641Z,60692.05
2022-11-24T08:09:43.925Z,60705.11
2022-11-24T08:12:07.472Z,60667.96
2022-11-24T08:21:38.955Z,60784.42
2022-11-24T08:26:57.161Z,60786.43
2022-11-24T08:47:31.886Z,59958.21
2022-11-24T09:13:14.000Z,59434.26
2022-11-24T09:32:44.812Z,59109.09
2022-11-24T09:35:11.049Z,58993.68
2022-11-24T09:36:34.844Z,59045.86
2022-11-24T09:37:58.499Z,58979.62
2022-11-24T09:51:32.052Z,58899.34
2022-11-24T09:52:49.554Z,58847.16
2022-11-24T10:00:49.835Z,58811.03
2022-11-24T10:03:37.396Z,58757.85
2022-11-24T10:04:44.634Z,58838.13
2022-11-24T10:05:52.521Z,58852.18
2022-11-24T10:26:00.889Z,59077.98
2022-11-24T11:46:54.860Z,58699.64
2022-11-24T11:49:26.636Z,58550.13
2022-11-24T11:53:18.814Z,58543.11
2022-11-24T11:54:30.585Z,58515.01
2022-11-24T12:03:22.926Z,58393.59
2022-11-24T12:04:29.324Z,58436.74
2022-11-24T12:06:52.699Z,58282.22
2022-11-24T12:08:10.775Z,58405.64
2022-11-24T12:14:32.486Z,58361.48
2022-11-24T12:24:59.107Z,58152.79
2022-11-24T12:37:56.748Z,57934.06
2022-11-24T12:41:54.805Z,57819.69
2022-11-24T12:45:44.905Z,57886.91
2022-11-24T12:57:48.253Z,57550.82
2022-11-24T12:58:50.939Z,57264.93
2022-11-24T13:00:14.020Z,56573.84
2022-11-24T13:01:28.444Z,55985.15
2022-11-24T13:02:49.057Z,54542.39
2022-11-24T13:03:54.966Z,54404.06
2022-11-24T13:06:24.979Z,54274.75
2022-11-24T13:07:41.636Z,54236.66
2022-11-24T13:10:06.985Z,54160.48
2022-11-24T13:22:00.220Z,54066.27
2022-11-24T13:23:08.519Z,54068.27
2022-11-24T13:24:12.124Z,54022.16
2022-11-24T13:25:15.809Z,53968.04
2022-11-24T13:26:18.585Z,53954.01
2022-11-24T13:27:23.808Z,54001.12
2022-11-24T13:29:00.003Z,53986.08
2022-11-24T13:29:41.428Z,53950.00
2022-11-24T13:30:44.232Z,53980.07
2022-11-24T13:31:46.664Z,53927.95
2022-11-24T13:32:49.334Z,53945.99
2022-11-24T13:33:52.526Z,53917.93
2022-11-24T13:34:55.539Z,53910.91
2022-11-24T13:35:58.363Z,53958.02
2022-11-24T13:37:31.821Z,53925.95
2022-11-24T13:38:05.861Z,53900.89
2022-11-24T13:39:08.629Z,53925.95
2022-11-24T13:40:12.066Z,53948.00
2022-11-24T13:41:31.299Z,53931.96
2022-11-24T13:42:41.045Z,53919.93
2022-11-24T13:43:23.619Z,53894.88
2022-11-24T13:44:26.483Z,53913.92
2022-11-24T13:45:31.725Z,53923.94
2022-11-24T13:46:34.548Z,53885.86
2022-11-24T13:47:37.471Z,53925.95
2022-11-24T13:48:40.245Z,53926.95
2022-11-24T13:49:43.737Z,53901.89
2022-11-24T13:50:46.918Z,53909.91
2022-11-24T13:51:49.791Z,53933.96
2022-11-24T13:52:53.451Z,53922.94
2022-11-24T13:53:56.769Z,53906.90
2022-11-24T13:55:06.086Z,53944.99
2022-11-24T13:56:07.013Z,53902.89
2022-11-24T13:57:10.088Z,53911.91
2022-11-24T13:58:12.859Z,53926.95
2022-11-24T13:59:15.627Z,53936.97
2022-11-24T14:00:27.130Z,53964.04
2022-11-24T14:01:29.746Z,53960.02
2022-11-24T14:02:33.561Z,53960.02
2022-11-24T14:03:36.372Z,53948.00
2022-11-24T14:04:39.019Z,53942.98
2022-11-24T14:05:42.312Z,53944.99
2022-11-24T14:06:45.491Z,53937.97
2022-11-24T14:07:48.562Z,53963.03
2022-11-24T14:08:51.439Z,53952.00
2022-11-24T14:09:54.427Z,53941.98
2022-11-24T14:10:57.927Z,53958.02
2022-11-24T14:12:00.482Z,53971.05
2022-11-24T14:13:03.249Z,53985.08
2022-11-24T14:14:06.135Z,53968.04
2022-11-24T14:15:09.011Z,53970.05
2022-11-24T14:16:12.587Z,53965.04
2022-11-24T14:17:15.344Z,53964.04
2022-11-24T14:18:18.644Z,53988.09
2022-11-24T14:19:22.150Z,53994.10
2022-11-24T14:20:25.834Z,53998.11
2022-11-24T14:21:28.608Z,53945.99
2022-11-24T14:22:31.993Z,53960.02
2022-11-24T14:23:35.073Z,53950.00
2022-11-24T14:24:41.579Z,53962.03
2022-11-24T14:25:42.561Z,53960.02
2022-11-24T14:26:45.332Z,53974.05
2022-11-24T14:27:48.009Z,53983.08
2022-11-24T14:28:51.075Z,53957.02
2022-11-24T14:29:54.525Z,53959.02
2022-11-24T14:30:57.211Z,53972.05
2022-11-24T14:31:59.917Z,53990.09
2022-11-24T14:33:03.084Z,53952.00
2022-11-24T14:34:05.668Z,53961.02
2022-11-24T14:35:08.363Z,53986.08
2022-11-24T14:36:11.516Z,53955.01
2022-11-24T14:37:14.401Z,53968.04
2022-11-24T14:38:17.673Z,53955.01
2022-11-24T14:39:20.642Z,53968.04
2022-11-24T14:40:23.858Z,53978.06
2022-11-24T14:41:26.412Z,53959.02
2022-11-24T14:42:29.227Z,53982.07
2022-11-24T14:43:32.070Z,53972.05
2022-11-24T14:44:35.482Z,53988.09
2022-11-24T14:45:39.235Z,53970.05
2022-11-24T14:46:42.533Z,54014.15
2022-11-24T14:49:01.576Z,53984.08
2022-11-24T14:50:04.991Z,54022.16
2022-11-24T14:51:07.730Z,53988.09
2022-11-24T14:52:10.297Z,53958.02
2022-11-24T14:53:13.706Z,53982.07
2022-11-24T14:54:16.359Z,53990.09
2022-11-24T14:55:23.381Z,53948.00
2022-11-24T14:56:26.510Z,53954.01
2022-11-24T14:57:29.554Z,53941.98
2022-11-24T14:58:36.501Z,53980.07
2022-11-24T14:59:37.620Z,53945.99
2022-11-24T15:00:40.858Z,53909.91
2022-11-24T15:01:43.598Z,53964.04
2022-11-24T15:02:47.751Z,53941.98
2022-11-24T15:03:50.723Z,53966.04
2022-11-24T15:05:02.640Z,53903.90
2022-11-24T15:05:58.015Z,53920.93
2022-11-24T15:07:00.683Z,53952.00
2022-11-24T15:08:04.068Z,53939.98
2022-11-24T15:09:07.051Z,53970.05
2022-11-24T15:10:16.178Z,53932.96
2022-11-24T15:11:19.251Z,53937.97
2022-11-24T15:12:22.334Z,53973.05
2022-11-24T15:13:24.899Z,53962.03
2022-11-24T15:14:28.089Z,53939.98
2022-11-24T15:15:31.180Z,53946.99
2022-11-24T15:16:33.878Z,53935.97
2022-11-24T15:17:36.812Z,53942.98
2022-11-24T15:19:55.458Z,53943.99
2022-11-24T15:20:58.228Z,53910.91
2022-11-24T15:22:01.214Z,53967.04
2022-11-24T15:23:04.391Z,53978.06
2022-11-24T15:24:07.161Z,53964.04
2022-11-24T15:25:10.247Z,53942.98
2022-11-24T15:26:13.736Z,53937.97
2022-11-24T15:27:16.696Z,53963.03
2022-11-24T15:28:19.902Z,54010.14
2022-11-24T15:29:22.983Z,54016.15
2022-11-24T15:30:26.453Z,54006.13
2022-11-24T15:31:29.421Z,53966.04
2022-11-24T15:33:49.625Z,54007.13
2022-11-24T15:34:53.106Z,54038.20
2022-11-24T15:35:56.394Z,54029.18
2022-11-24T15:36:59.379Z,54000.11
2022-11-24T15:38:01.946Z,54013.14
2022-11-24T15:39:05.442Z,54022.16
2022-11-24T15:40:08.934Z,53976.06
2022-11-24T15:41:13.332Z,54006.13
2022-11-24T15:42:15.893Z,54012.14
2022-11-24T15:43:18.803Z,54026.18
2022-11-24T15:44:22.669Z,54017.15
2022-11-24T15:45:27.927Z,54000.11
2022-11-24T15:46:31.093Z,54007.13
2022-11-24T15:47:34.267Z,54003.12
2022-11-24T15:49:53.626Z,54000.11
2022-11-24T15:50:56.705Z,53996.11
2022-11-24T15:51:59.786Z,53985.08
2022-11-24T15:53:02.797Z,54020.16
2022-11-24T15:54:05.773Z,53986.08
2022-11-24T15:55:13.600Z,53976.06
2022-11-24T15:56:16.916Z,53982.07
2022-11-24T15:57:19.996Z,53950.00
2022-11-24T15:58:23.507Z,53995.11
2022-11-24T15:59:32.687Z,53966.04
2022-11-24T16:00:36.726Z,53993.10
2022-11-24T16:01:40.489Z,53980.07
2022-11-24T16:02:43.209Z,53990.09
2022-11-24T16:03:49.245Z,53995.11
2022-11-24T16:04:52.918Z,53979.07
2022-11-24T16:05:56.007Z,53986.08
2022-11-24T16:06:58.486Z,53969.04
2022-11-24T16:08:02.982Z,53965.04
2022-11-24T16:09:06.684Z,53983.08
2022-11-24T16:10:10.367Z,53998.11
2022-11-24T16:11:13.145Z,53943.99
2022-11-24T16:12:16.522Z,53958.02
2022-11-24T16:13:19.405Z,53945.99
2022-11-24T16:14:22.420Z,53923.94
2022-11-24T16:15:25.146Z,53903.90
2022-11-24T16:16:28.503Z,53929.95
2022-11-24T16:17:31.227Z,53919.93
2022-11-24T16:18:34.386Z,53925.95
2022-11-24T16:19:41.580Z,53905.90
2022-11-24T16:20:41.608Z,53864.81
2022-11-24T16:21:44.766Z,53880.84
2022-11-24T16:22:48.156Z,53911.91
2022-11-24T16:23:51.220Z,53859.80
2022-11-24T16:24:54.116Z,53861.80
2022-11-24T16:25:57.004Z,53895.88
2022-11-24T16:26:59.844Z,53862.80
2022-11-24T16:28:03.066Z,53874.83
2022-11-24T16:29:05.802Z,53841.75
2022-11-24T16:30:08.784Z,53852.78
2022-11-24T16:31:11.816Z,53853.78
2022-11-24T16:33:30.701Z,53836.75
2022-11-24T16:34:34.559Z,53852.78
2022-11-24T16:35:41.275Z,53873.83
2022-11-24T16:36:43.903Z,53839.75
2022-11-24T16:37:46.818Z,53881.85
2022-11-24T16:38:50.007Z,53849.77
2022-11-24T16:39:52.487Z,53864.81
2022-11-24T16:40:55.532Z,53832.73
2022-11-24T16:41:58.414Z,53867.81
2022-11-24T16:43:04.572Z,53850.78
2022-11-24T16:44:07.251Z,53820.71
2022-11-24T16:45:09.946Z,53851.78
2022-11-24T16:46:12.709Z,53851.78
2022-11-24T16:47:16.261Z,53827.72
2022-11-24T16:48:18.865Z,53810.68
2022-11-24T16:49:21.933Z,53829.73
2022-11-24T16:50:24.904Z,53850.78
2022-11-24T16:51:34.229Z,53837.75
2022-11-24T16:52:33.005Z,53841.75
2022-11-24T16:53:39.015Z,53829.73
2022-11-24T16:54:42.233Z,53809.68
2022-11-24T16:55:45.122Z,53827.72
2022-11-24T16:56:48.496Z,53819.71
2022-11-24T16:57:51.369Z,53809.68
2022-11-24T16:58:56.606Z,53831.73
2022-11-24T16:59:59.779Z,53825.72
2022-11-24T17:01:02.319Z,53831.73
2022-11-24T17:02:04.951Z,53803.67
2022-11-24T17:03:07.688Z,53784.63
2022-11-24T17:05:27.570Z,53814.70
2022-11-24T17:06:31.046Z,53793.65
2022-11-24T17:07:34.368Z,53812.69
2022-11-24T17:08:37.808Z,53801.67
2022-11-24T17:09:40.981Z,53807.68
2022-11-24T17:10:44.478Z,53800.66
2022-11-24T17:11:47.559Z,53800.66
2022-11-24T17:12:50.433Z,53749.55
2022-11-24T17:13:54.230Z,53773.60
2022-11-24T17:15:30.588Z,53812.69
2022-11-24T17:17:18.384Z,53790.64
2022-11-24T17:19:37.186Z,53826.72
2022-11-24T17:20:40.774Z,53843.76
2022-11-24T17:21:44.257Z,53768.59
2022-11-24T17:22:47.739Z,53814.70
2022-11-24T17:23:51.247Z,53777.61
2022-11-24T17:24:54.528Z,53774.61
2022-11-24T17:25:57.710Z,53791.64
2022-11-24T17:27:01.186Z,53804.67
2022-11-24T17:28:04.093Z,53791.64
2022-11-24T17:29:07.254Z,53783.62
2022-11-24T17:30:10.832Z,53801.67
2022-11-24T17:31:14.554Z,53771.60
2022-11-24T17:32:18.241Z,53799.66
2022-11-24T17:33:22.434Z,53792.64
2022-11-24T17:34:25.611Z,53775.61
2022-11-24T17:35:28.888Z,53816.70
2022-11-24T17:36:31.829Z,53772.60
2022-11-24T17:37:34.738Z,53768.59
2022-11-24T17:38:37.764Z,53793.65
2022-11-24T17:39:42.404Z,53764.58
2022-11-24T17:42:00.785Z,53797.66
2022-11-24T17:43:03.680Z,53815.70
2022-11-24T17:44:06.950Z,53807.68
2022-11-24T17:45:09.723Z,53798.66
2022-11-24T17:46:12.674Z,53788.64
2022-11-24T17:47:15.769Z,53753.56
2022-11-24T17:48:18.748Z,53801.67
2022-11-24T17:49:21.346Z,53781.62
2022-11-24T17:50:26.371Z,53791.64
2022-11-24T17:51:28.926Z,53803.67
2022-11-24T17:52:31.684Z,53784.63
2022-11-24T17:53:35.426Z,53780.62
2022-11-24T17:54:46.255Z,53757.57
2022-11-24T17:55:43.681Z,53768.59
2022-11-24T17:56:47.480Z,53793.65
2022-11-24T17:57:50.593Z,53783.62
2022-11-24T17:58:53.842Z,53783.62
2022-11-24T17:59:57.309Z,53753.56
2022-11-24T18:01:01.039Z,53794.65
2022-11-24T18:02:04.523Z,53803.67
2022-11-24T18:03:07.805Z,53770.60
2022-11-24T18:05:33.453Z,53781.62
2022-11-24T18:06:36.032Z,53795.65
2022-11-24T18:07:39.262Z,53788.64
2022-11-24T18:08:42.481Z,53785.63
2022-11-24T18:09:45.030Z,53762.58
2022-11-24T18:10:48.608Z,53747.55
2022-11-24T18:11:51.365Z,53795.65
2022-11-24T18:12:56.709Z,53810.68
2022-11-24T18:15:15.700Z,53773.60
2022-11-24T18:16:19.543Z,53781.62
2022-11-24T18:17:23.061Z,53810.68
2022-11-24T18:18:27.007Z,53799.66
2022-11-24T18:19:30.793Z,53780.62
2022-11-24T18:20:34.354Z,53747.55
2022-11-24T18:21:38.084Z,53781.62
2022-11-24T18:23:05.174Z,53800.66
2022-11-24T18:23:46.145Z,53784.63
2022-11-24T18:24:48.794Z,53751.55
2022-11-24T18:25:52.228Z,53749.55
2022-11-24T18:26:55.616Z,53759.57
2022-11-24T18:27:58.898Z,53778.61
2022-11-24T18:29:02.508Z,53769.59
2022-11-24T18:30:05.165Z,53806.68